Time;durP1;ratioP1;P1;durP2;ratioP2;P2;SDS_P1;SDS_P2;PMS_P1;PMS_P2;Temp;Humidity;BMP_temperature;BMP_pressure;BME280_temperature;BME280_humidity;BME280_pressure;Samples;Min_cycle;Max_cycle;Signal;HPM_P1;HPM_P2
2022/09/11 00:01:12;;;;;;;30.40;20.42;;;17.30;99.90;;;;;;5034889;28;20270;-68
2022/09/11 00:03:37;;;;;;;25.42;19.13;;;17.30;99.90;;;;;;5047715;28;20478;-67
2022/09/11 00:06:05;;;;;;;26.38;21.55;;;17.30;99.90;;;;;;5034934;28;20026;-68
2022/09/11 00:08:31;;;;;;;33.78;21.73;;;17.30;99.90;;;;;;5037391;28;20025;-70
2022/09/11 00:11:15;;;;;;;33.22;23.00;;;17.30;99.90;;;;;;5047047;28;20017;-68
2022/09/11 00:13:41;;;;;;;31.00;21.67;;;17.20;99.90;;;;;;5023457;28;20374;-68
2022/09/11 00:16:17;;;;;;;36.47;24.00;;;17.20;99.90;;;;;;5043038;28;20044;-68
2022/09/11 00:18:43;;;;;;;31.10;22.75;;;17.20;99.90;;;;;;5046337;28;20052;-69
2022/09/11 00:21:09;;;;;;;29.48;22.70;;;17.20;99.90;;;;;;5051627;28;20477;-73
2022/09/11 00:23:34;;;;;;;29.67;22.60;;;17.10;99.90;;;;;;5037325;28;20373;-70
2022/09/11 00:26:02;;;;;;;34.80;22.65;;;17.10;99.90;;;;;;5043728;28;20420;-72
2022/09/11 00:28:29;;;;;;;32.17;22.05;;;17.10;99.90;;;;;;5040109;28;20028;-67
2022/09/11 00:30:59;;;;;;;32.35;23.75;;;17.10;99.90;;;;;;5033263;28;20037;-70
2022/09/11 00:33:26;;;;;;;31.00;23.58;;;17.10;99.90;;;;;;5033093;28;20013;-68
2022/09/11 00:35:57;;;;;;;32.15;22.83;;;17.10;99.90;;;;;;5044986;28;20087;-68
2022/09/11 00:38:29;;;;;;;31.42;20.75;;;17.10;99.90;;;;;;5034688;28;20497;-68
2022/09/11 00:40:58;;;;;;;36.05;21.52;;;17.00;99.90;;;;;;5047331;28;20033;-68
2022/09/11 00:43:25;;;;;;;28.55;21.60;;;17.10;99.90;;;;;;5033448;28;20029;-68
2022/09/11 00:46:00;;;;;;;30.15;23.40;;;17.00;99.90;;;;;;5038139;28;20028;-68
2022/09/11 00:48:30;;;;;;;34.50;22.55;;;17.00;99.90;;;;;;5040084;28;20037;-71
2022/09/11 00:50:58;;;;;;;27.67;22.13;;;17.00;99.90;;;;;;5047772;28;20025;-68
2022/09/11 00:53:29;;;;;;;30.63;22.60;;;17.00;99.90;;;;;;5035544;28;20025;-68
2022/09/11 00:55:57;;;;;;;35.42;23.58;;;17.00;99.90;;;;;;5044126;28;20099;-68
2022/09/11 00:58:27;;;;;;;33.58;23.65;;;16.90;99.90;;;;;;5043476;28;20064;-69
2022/09/11 01:00:55;;;;;;;32.63;25.10;;;16.90;99.90;;;;;;5030329;28;20092;-68
2022/09/11 01:03:22;;;;;;;31.27;23.27;;;16.90;99.90;;;;;;5048444;28;20029;-68
2022/09/11 01:05:48;;;;;;;32.20;23.60;;;16.90;99.90;;;;;;5042226;28;20042;-67
2022/09/11 01:08:14;;;;;;;32.17;23.80;;;16.80;99.90;;;;;;5035042;28;20022;-68
2022/09/11 01:11:01;;;;;;;38.08;25.25;;;16.80;99.90;;;;;;5033767;28;20075;-69
2022/09/11 01:13:51;;;;;;;32.83;23.88;;;16.70;99.90;;;;;;5019077;28;20033;-68
2022/09/11 01:16:17;;;;;;;32.58;22.25;;;16.70;99.90;;;;;;5031013;28;20072;-68
2022/09/11 01:19:07;;;;;;;32.03;23.02;;;16.70;99.90;;;;;;5044222;28;20025;-68
2022/09/11 01:21:55;;;;;;;34.05;23.42;;;16.80;99.90;;;;;;5032344;28;20138;-69
2022/09/11 01:25:03;;;;;;;32.83;24.60;;;16.70;99.90;;;;;;5038118;28;20028;-68
2022/09/11 01:27:36;;;;;;;38.67;25.25;;;16.70;99.90;;;;;;5023829;28;20017;-69
2022/09/11 01:30:04;;;;;;;;;;;16.70;99.90;;;;;;5032313;28;20087;-68
2022/09/11 01:33:11;;;;;;;40.72;25.77;;;16.70;99.90;;;;;;5043569;28;19908;-69
2022/09/11 01:35:55;;;;;;;37.67;25.67;;;16.60;99.90;;;;;;5028018;28;20033;-68
2022/09/11 01:38:30;;;;;;;41.88;28.05;;;16.70;99.90;;;;;;5025857;28;20037;-69
2022/09/11 01:41:06;;;;;;;45.90;29.88;;;16.60;99.90;;;;;;5046292;28;20044;-69
2022/09/11 01:43:39;;;;;;;40.95;27.85;;;16.70;99.90;;;;;;5020519;28;20083;-68
2022/09/11 01:46:06;;;;;;;39.63;28.52;;;16.60;99.90;;;;;;5040419;28;20040;-68
2022/09/11 01:48:47;;;;;;;45.25;28.90;;;16.70;99.90;;;;;;5043744;28;20499;-68
2022/09/11 01:51:20;;;;;;;42.45;28.60;;;16.60;99.90;;;;;;5034492;28;20394;-68
2022/09/11 01:53:50;;;;;;;38.67;26.95;;;16.60;99.90;;;;;;5037895;28;20102;-68
2022/09/11 01:56:24;;;;;;;44.22;28.00;;;16.60;99.90;;;;;;5034818;28;20025;-69
2022/09/11 01:58:56;;;;;;;41.97;28.88;;;16.60;99.90;;;;;;5035610;28;20033;-68
2022/09/11 02:01:31;;;;;;;46.65;28.02;;;16.60;99.90;;;;;;5033879;28;20032;-69
2022/09/11 02:04:16;;;;;;;43.17;25.98;;;16.60;99.90;;;;;;5032920;28;20040;-69
2022/09/11 02:07:27;;;;;;;44.15;29.23;;;16.60;99.90;;;;;;5033930;28;20030;-68
2022/09/11 02:09:58;;;;;;;38.97;26.58;;;16.60;99.90;;;;;;5032061;28;20335;-67
2022/09/11 02:12:29;;;;;;;39.00;27.17;;;16.60;99.90;;;;;;5033638;28;20042;-69
2022/09/11 02:14:55;;;;;;;42.58;27.90;;;16.60;99.90;;;;;;5034651;28;20025;-68
2022/09/11 02:17:27;;;;;;;39.67;27.23;;;16.60;99.90;;;;;;5035197;28;20052;-68
2022/09/11 02:19:56;;;;;;;44.75;29.63;;;16.60;99.90;;;;;;5030255;28;20116;-68
2022/09/11 02:22:23;;;;;;;44.58;29.52;;;16.50;99.90;;;;;;5033384;28;20064;-69
2022/09/11 02:24:50;;;;;;;41.28;27.98;;;16.50;99.90;;;;;;5033627;28;20017;-68
2022/09/11 02:27:23;;;;;;;39.55;27.55;;;16.50;99.90;;;;;;5035068;28;20017;-69
2022/09/11 02:29:51;;;;;;;43.08;29.45;;;16.50;99.90;;;;;;5030998;28;20390;-68
2022/09/11 02:32:17;;;;;;;46.88;29.15;;;16.40;99.90;;;;;;5034818;28;20351;-69
2022/09/11 02:34:45;;;;;;;40.65;27.98;;;16.40;99.90;;;;;;5035008;28;20033;-67
2022/09/11 02:37:30;;;;;;;41.50;28.88;;;16.40;99.90;;;;;;5035302;28;20021;-69
2022/09/11 02:40:18;;;;;;;57.03;32.55;;;16.40;99.90;;;;;;5033519;28;20040;-68
2022/09/11 02:43:15;;;;;;;49.35;31.02;;;16.40;99.90;;;;;;5034556;28;20029;-68
2022/09/11 02:45:59;;;;;;;53.20;32.47;;;16.30;99.90;;;;;;5035212;28;20112;-68
2022/09/11 02:49:02;;;;;;;48.92;30.90;;;16.30;99.90;;;;;;5034626;28;20501;-68
2022/09/11 02:51:33;;;;;;;45.25;29.98;;;16.30;99.90;;;;;;5032453;28;20104;-68
2022/09/11 02:54:27;;;;;;;46.63;29.95;;;16.40;99.90;;;;;;5034256;28;20064;-67
2022/09/11 02:57:11;;;;;;;40.55;27.90;;;16.30;99.90;;;;;;5031945;28;20482;-69
2022/09/11 02:59:44;;;;;;;51.10;31.75;;;16.40;99.90;;;;;;5033032;28;20064;-69
2022/09/11 03:02:13;;;;;;;61.47;34.80;;;16.30;99.90;;;;;;5031976;28;20045;-68
2022/09/11 03:04:39;;;;;;;49.83;34.40;;;16.30;99.90;;;;;;5032812;28;20032;-68
2022/09/11 03:07:05;;;;;;;54.15;33.75;;;16.30;99.90;;;;;;5032854;28;20026;-67
2022/09/11 03:09:32;;;;;;;43.08;29.73;;;16.30;99.90;;;;;;5032397;28;20037;-68
2022/09/11 03:11:58;;;;;;;45.47;31.08;;;16.30;99.90;;;;;;5034144;28;20041;-67
2022/09/11 03:14:23;;;;;;;54.47;32.42;;;16.20;99.90;;;;;;5032950;28;20022;-67
2022/09/11 03:16:49;;;;;;;53.95;31.30;;;16.30;99.90;;;;;;5032762;28;20040;-69
2022/09/11 03:19:15;;;;;;;51.92;33.03;;;16.20;99.90;;;;;;5033991;28;20029;-68
2022/09/11 03:21:41;;;;;;;51.25;32.10;;;16.20;99.90;;;;;;5033832;28;20087;-68
2022/09/11 03:24:08;;;;;;;59.53;33.10;;;16.20;99.90;;;;;;5033993;28;20025;-68
2022/09/11 03:26:34;;;;;;;53.63;31.20;;;16.10;99.90;;;;;;5034178;28;20017;-67
2022/09/11 03:29:01;;;;;;;53.28;31.52;;;16.10;99.90;;;;;;5033596;28;20029;-67
2022/09/11 03:31:27;;;;;;;46.78;30.10;;;16.10;99.90;;;;;;5034045;28;20021;-67
2022/09/11 03:33:53;;;;;;;56.08;31.50;;;16.10;99.90;;;;;;5034223;28;20021;-68
2022/09/11 03:36:19;;;;;;;50.80;31.17;;;16.10;99.90;;;;;;5033756;28;20029;-67
2022/09/11 03:38:46;;;;;;;57.70;35.08;;;16.10;99.90;;;;;;5033898;28;20013;-68
2022/09/11 03:41:12;;;;;;;57.40;34.03;;;16.10;99.90;;;;;;5033760;28;20029;-68
2022/09/11 03:43:38;;;;;;;59.90;33.65;;;16.00;99.90;;;;;;5033874;28;20032;-68
2022/09/11 03:46:04;;;;;;;51.78;32.95;;;16.00;99.90;;;;;;5033883;28;20029;-68
2022/09/11 03:48:30;;;;;;;52.30;32.80;;;16.00;99.90;;;;;;5032769;28;20017;-68
2022/09/11 03:50:57;;;;;;;47.20;30.08;;;16.00;99.90;;;;;;5033494;28;20025;-67
2022/09/11 03:53:24;;;;;;;43.08;29.45;;;16.00;99.90;;;;;;5030492;28;20021;-67
2022/09/11 03:55:50;;;;;;;49.42;28.88;;;16.00;99.90;;;;;;5032498;28;20013;-67
2022/09/11 03:58:18;;;;;;;47.95;30.63;;;16.00;99.90;;;;;;5032246;28;20028;-67
2022/09/11 04:00:44;;;;;;;44.10;28.45;;;16.00;99.90;;;;;;5030390;28;20039;-67
2022/09/11 04:03:11;;;;;;;40.92;25.85;;;16.00;99.90;;;;;;5033342;28;20028;-68
2022/09/11 04:05:37;;;;;;;43.05;27.27;;;16.00;99.90;;;;;;5033304;28;20374;-68
2022/09/11 04:08:04;;;;;;;50.58;29.00;;;16.00;99.90;;;;;;5030053;28;20405;-67
2022/09/11 04:10:32;;;;;;;61.63;30.65;;;16.00;99.90;;;;;;5032719;28;20076;-68
2022/09/11 04:12:58;;;;;;;41.47;26.75;;;16.00;99.90;;;;;;5031218;28;20387;-69
2022/09/11 04:15:24;;;;;;;60.15;27.98;;;15.90;99.90;;;;;;5033474;28;20032;-67
2022/09/11 04:17:51;;;;;;;47.85;30.23;;;15.90;99.90;;;;;;5033298;28;20075;-68
2022/09/11 04:20:17;;;;;;;38.63;27.83;;;15.90;99.90;;;;;;5032688;28;20034;-68
2022/09/11 04:22:42;;;;;;;44.92;28.50;;;15.90;99.90;;;;;;5029143;28;20034;-68
2022/09/11 04:25:09;;;;;;;55.42;28.63;;;15.90;99.90;;;;;;5032853;28;20075;-68
2022/09/11 04:27:35;;;;;;;38.42;27.20;;;15.90;99.90;;;;;;5031706;28;20505;-67
2022/09/11 04:30:01;;;;;;;63.38;28.95;;;15.90;99.90;;;;;;5032832;28;20033;-68
2022/09/11 04:32:28;;;;;;;41.40;29.63;;;15.80;99.90;;;;;;5032903;28;20536;-68
2022/09/11 04:34:53;;;;;;;41.95;29.50;;;15.90;99.90;;;;;;5031252;28;20037;-68
2022/09/11 04:37:19;;;;;;;51.38;30.73;;;15.80;99.90;;;;;;5032700;28;20474;-68
2022/09/11 04:39:46;;;;;;;63.55;32.90;;;15.90;99.90;;;;;;5032217;28;20034;-70
2022/09/11 04:42:11;;;;;;;79.85;34.08;;;15.80;99.90;;;;;;5032729;28;20025;-68
2022/09/11 04:44:38;;;;;;;88.88;35.13;;;15.80;99.90;;;;;;5032843;28;20025;-68
2022/09/11 04:47:03;;;;;;;115.68;35.67;;;15.90;99.90;;;;;;5030206;28;20494;-70
2022/09/11 04:49:29;;;;;;;109.10;34.13;;;15.80;99.90;;;;;;5032439;28;20029;-69
2022/09/11 04:51:56;;;;;;;69.32;33.10;;;15.80;99.90;;;;;;5032490;28;20053;-69
2022/09/11 04:54:22;;;;;;;104.03;35.88;;;15.80;99.90;;;;;;5032051;28;20026;-68
2022/09/11 04:56:48;;;;;;;62.47;33.08;;;15.80;99.90;;;;;;5031274;28;20036;-67
2022/09/11 04:59:17;;;;;;;57.03;34.10;;;15.80;99.90;;;;;;5031766;28;20454;-68
2022/09/11 05:01:43;;;;;;;62.50;33.17;;;15.80;99.90;;;;;;5029858;28;20014;-68
2022/09/11 05:04:11;;;;;;;80.65;36.08;;;15.90;99.90;;;;;;5031860;28;20025;-70
2022/09/11 05:06:37;;;;;;;91.47;35.33;;;15.90;99.90;;;;;;5032370;28;20029;-68
2022/09/11 05:09:05;;;;;;;90.07;33.88;;;15.90;99.90;;;;;;5028827;28;20072;-68
2022/09/11 05:11:31;;;;;;;102.38;37.70;;;15.90;99.90;;;;;;5030772;28;20029;-67
2022/09/11 05:13:59;;;;;;;77.53;34.10;;;15.90;99.90;;;;;;5032538;28;20026;-68
2022/09/11 05:16:27;;;;;;;76.45;32.85;;;15.80;99.90;;;;;;5029676;28;20021;-67
2022/09/11 05:18:53;;;;;;;95.90;34.95;;;15.80;99.90;;;;;;5031887;28;20018;-67
2022/09/11 05:21:23;;;;;;;81.05;35.78;;;15.90;99.90;;;;;;5030883;28;20057;-68
2022/09/11 05:23:52;;;;;;;78.07;36.35;;;15.90;99.90;;;;;;5031635;28;20014;-67
2022/09/11 05:26:20;;;;;;;70.97;34.85;;;15.90;99.90;;;;;;5032159;28;20025;-68
2022/09/11 05:28:47;;;;;;;57.72;32.15;;;15.90;99.90;;;;;;5028691;28;20109;-67
2022/09/11 05:31:15;;;;;;;59.42;33.67;;;15.90;99.90;;;;;;5030648;28;20433;-67
2022/09/11 05:33:42;;;;;;;182.00;40.20;;;15.90;99.90;;;;;;5031520;28;20097;-67
2022/09/11 05:36:09;;;;;;;79.35;34.78;;;16.00;99.90;;;;;;5030913;28;20025;-68
2022/09/11 05:38:37;;;;;;;62.25;36.28;;;15.90;99.90;;;;;;5031830;28;20014;-67
2022/09/11 05:41:09;;;;;;;74.00;36.67;;;16.00;99.90;;;;;;5029214;28;20022;-68
2022/09/11 05:43:36;;;;;;;81.07;39.72;;;16.10;99.90;;;;;;5031835;28;20030;-68
2022/09/11 05:46:02;;;;;;;97.75;41.30;;;16.10;99.90;;;;;;5030921;28;20835;-67
2022/09/11 05:48:29;;;;;;;155.43;43.60;;;16.10;99.90;;;;;;5031587;28;20026;-67
2022/09/11 05:50:58;;;;;;;154.05;45.22;;;16.10;99.90;;;;;;5032083;28;20462;-68
2022/09/11 05:53:24;;;;;;;113.82;42.33;;;16.10;99.90;;;;;;5028765;28;20022;-68
2022/09/11 05:55:50;;;;;;;84.55;40.63;;;16.20;99.90;;;;;;5031242;28;20029;-67
2022/09/11 05:58:17;;;;;;;81.05;37.05;;;16.20;99.90;;;;;;5031903;28;20335;-67
2022/09/11 06:00:45;;;;;;;86.60;39.70;;;16.20;99.90;;;;;;5031001;28;20040;-67
2022/09/11 06:03:12;;;;;;;185.15;44.53;;;16.20;99.90;;;;;;5031971;28;20075;-67
2022/09/11 06:05:38;;;;;;;119.88;42.78;;;16.10;99.90;;;;;;5031440;28;20028;-68
2022/09/11 06:08:04;;;;;;;112.90;43.05;;;16.20;99.90;;;;;;5028982;28;20112;-68
2022/09/11 06:10:29;;;;;;;177.63;49.42;;;16.20;99.90;;;;;;5031796;28;20108;-67
2022/09/11 06:12:56;;;;;;;109.22;44.83;;;16.20;99.90;;;;;;5031866;28;20053;-68
2022/09/11 06:15:21;;;;;;;404.85;63.38;;;16.20;99.90;;;;;;5031472;28;20026;-68
2022/09/11 06:17:47;;;;;;;153.35;47.22;;;16.10;99.90;;;;;;5031485;28;20060;-68
2022/09/11 06:20:13;;;;;;;379.45;63.72;;;16.10;99.90;;;;;;5030810;28;20025;-68
2022/09/11 06:22:38;;;;;;;170.20;47.28;;;16.10;99.90;;;;;;5030847;28;20363;-68
2022/09/11 06:25:05;;;;;;;81.82;40.75;;;16.20;99.90;;;;;;5031518;28;20531;-68
2022/09/11 06:27:30;;;;;;;260.02;55.13;;;16.30;99.90;;;;;;5031606;28;20025;-68
2022/09/11 06:29:56;;;;;;;90.88;42.20;;;16.30;99.90;;;;;;5031252;28;20026;-68
2022/09/11 06:32:22;;;;;;;94.00;40.60;;;16.40;99.90;;;;;;5031512;28;20029;-68
2022/09/11 06:34:47;;;;;;;77.80;38.70;;;16.40;99.90;;;;;;5030415;28;20021;-68
2022/09/11 06:37:13;;;;;;;74.25;35.78;;;16.40;99.90;;;;;;5031533;28;20026;-67
2022/09/11 06:39:39;;;;;;;128.38;39.88;;;16.40;99.90;;;;;;5031299;28;20082;-68
2022/09/11 06:42:06;;;;;;;89.93;36.78;;;16.50;99.90;;;;;;5030978;28;20382;-67
2022/09/11 06:44:32;;;;;;;96.43;38.38;;;16.50;99.90;;;;;;5031061;28;20040;-67
2022/09/11 06:46:58;;;;;;;68.90;37.22;;;16.50;99.90;;;;;;5035365;28;20025;-67
2022/09/11 06:49:24;;;;;;;60.10;37.35;;;16.60;99.90;;;;;;5035593;28;20026;-68
2022/09/11 06:51:51;;;;;;;86.45;36.42;;;16.60;99.90;;;;;;5034144;28;20045;-69
2022/09/11 06:54:16;;;;;;;65.20;36.80;;;16.60;99.90;;;;;;5033383;28;20030;-69
2022/09/11 06:56:44;;;;;;;67.35;37.30;;;16.70;99.90;;;;;;5034995;28;20547;-72
2022/09/11 06:59:09;;;;;;;62.03;36.95;;;16.70;99.90;;;;;;5034607;28;20101;-67
2022/09/11 07:01:35;;;;;;;59.13;35.47;;;16.80;99.90;;;;;;5034973;28;20056;-70
2022/09/11 07:04:01;;;;;;;77.07;36.45;;;16.80;99.90;;;;;;5035311;28;20030;-69
2022/09/11 07:06:29;;;;;;;69.53;36.45;;;16.90;99.90;;;;;;5035283;28;20029;-69
2022/09/11 07:09:01;;;;;;;77.95;35.45;;;16.90;99.90;;;;;;5035110;28;20072;-69
2022/09/11 07:11:32;;;;;;;75.45;35.00;;;16.90;99.90;;;;;;5035051;28;20109;-68
2022/09/11 07:14:05;;;;;;;89.80;37.40;;;16.90;99.90;;;;;;5034162;28;20029;-69
2022/09/11 07:16:32;;;;;;;143.77;43.08;;;16.90;99.90;;;;;;5034796;28;20017;-69
2022/09/11 07:18:57;;;;;;;81.20;36.55;;;16.90;99.90;;;;;;5032660;28;20035;-69
2022/09/11 07:21:26;;;;;;;80.38;37.20;;;17.00;99.90;;;;;;5034067;28;20037;-70
2022/09/11 07:23:55;;;;;;;78.45;36.58;;;17.00;99.90;;;;;;5033685;28;20060;-68
2022/09/11 07:26:22;;;;;;;51.75;33.45;;;17.00;99.90;;;;;;5032480;28;20030;-71
2022/09/11 07:28:49;;;;;;;63.67;32.55;;;17.10;99.90;;;;;;5031425;28;20549;-73
2022/09/11 07:31:20;;;;;;;64.28;35.45;;;17.20;99.90;;;;;;5033043;28;20096;-68
2022/09/11 07:33:47;;;;;;;69.17;38.67;;;17.20;99.90;;;;;;5033281;28;20072;-68
2022/09/11 07:36:15;;;;;;;64.35;36.08;;;17.20;99.90;;;;;;5034320;28;20024;-68
2022/09/11 07:38:43;;;;;;;448.25;58.22;;;17.20;99.90;;;;;;5032714;28;20466;-67
2022/09/11 07:41:09;;;;;;;187.85;40.72;;;17.20;99.90;;;;;;5034566;28;20040;-68
2022/09/11 07:43:36;;;;;;;173.43;46.17;;;17.10;99.90;;;;;;5034008;28;20028;-68
2022/09/11 07:46:04;;;;;;;296.55;42.40;;;17.20;99.90;;;;;;5033568;28;20120;-67
2022/09/11 07:48:30;;;;;;;151.65;44.05;;;17.00;99.90;;;;;;5033834;28;20109;-67
2022/09/11 07:51:01;;;;;;;368.40;52.03;;;17.10;99.90;;;;;;5034185;28;20026;-67
2022/09/11 07:53:31;;;;;;;134.13;43.22;;;17.10;99.90;;;;;;5033217;28;20026;-68
2022/09/11 07:56:04;;;;;;;65.75;36.80;;;17.10;99.90;;;;;;5033248;28;20389;-69
2022/09/11 07:58:34;;;;;;;65.30;35.90;;;17.30;99.90;;;;;;5030042;28;20493;-68
2022/09/11 08:01:02;;;;;;;104.70;40.22;;;17.40;99.90;;;;;;5033315;28;20458;-69
2022/09/11 08:03:29;;;;;;;112.47;36.72;;;17.40;99.90;;;;;;5030134;28;20478;-69
2022/09/11 08:06:00;;;;;;;64.13;32.63;;;17.40;99.90;;;;;;5033460;28;20028;-70
2022/09/11 08:08:28;;;;;;;57.47;35.78;;;17.40;99.90;;;;;;5032766;28;20025;-72
2022/09/11 08:10:55;;;;;;;50.75;33.05;;;17.60;99.90;;;;;;5032019;28;20024;-69
2022/09/11 08:13:21;;;;;;;56.05;34.75;;;17.50;99.90;;;;;;5031954;28;20056;-68
2022/09/11 08:15:49;;;;;;;53.05;32.33;;;17.50;99.90;;;;;;5032306;28;20457;-73
2022/09/11 08:18:14;;;;;;;55.40;33.30;;;17.70;99.90;;;;;;5032647;28;20018;-73
2022/09/11 08:20:40;;;;;;;54.70;33.80;;;17.70;99.90;;;;;;5032196;28;20079;-73
2022/09/11 08:23:08;;;;;;;60.03;32.88;;;17.70;99.90;;;;;;5032122;28;20021;-72
2022/09/11 08:25:35;;;;;;;53.83;34.10;;;17.80;99.90;;;;;;5033065;28;20029;-72
2022/09/11 08:28:01;;;;;;;55.75;36.58;;;17.80;99.90;;;;;;5033244;28;20026;-72
2022/09/11 08:30:27;;;;;;;59.88;34.95;;;17.90;99.90;;;;;;5033495;28;20028;-71
2022/09/11 08:32:53;;;;;;;118.00;39.38;;;17.80;99.90;;;;;;5032596;28;20482;-74
2022/09/11 08:35:19;;;;;;;110.88;40.53;;;17.80;99.90;;;;;;5030198;28;20087;-69
2022/09/11 08:37:45;;;;;;;60.75;35.40;;;17.70;99.90;;;;;;5032846;28;20038;-72
2022/09/11 08:40:11;;;;;;;63.95;38.15;;;17.80;99.90;;;;;;5031244;28;20041;-72
2022/09/11 08:42:44;;;;;;;100.13;41.40;;;17.70;99.90;;;;;;5032545;28;20037;-72
2022/09/11 08:45:15;;;;;;;66.53;37.95;;;17.90;99.90;;;;;;5032694;28;20037;-73
2022/09/11 08:47:49;;;;;;;54.72;35.58;;;18.00;99.90;;;;;;5033032;28;20022;-74
2022/09/11 08:50:23;;;;;;;60.60;37.42;;;18.10;99.90;;;;;;5032588;28;20064;-70
2022/09/11 08:52:48;;;;;;;48.60;33.58;;;18.20;99.90;;;;;;5031694;28;20037;-69
2022/09/11 08:55:26;;;;;;;55.70;35.20;;;18.20;99.90;;;;;;5031769;28;20366;-69
2022/09/11 08:57:57;;;;;;;56.60;36.78;;;18.20;99.90;;;;;;5029150;28;20022;-69
2022/09/11 09:00:31;;;;;;;61.75;34.85;;;18.10;99.90;;;;;;5032184;28;20040;-69
2022/09/11 09:03:07;;;;;;;59.47;36.40;;;18.10;99.90;;;;;;5031627;28;20057;-69
2022/09/11 09:05:55;;;;;;;54.92;35.47;;;18.20;99.90;;;;;;5011508;28;20386;-68
2022/09/11 09:08:57;;;;;;;64.15;38.22;;;18.40;99.90;;;;;;5025778;28;20022;-68
2022/09/11 09:11:32;;;;;;;60.60;34.30;;;18.40;99.90;;;;;;5029251;28;20045;-73
2022/09/11 09:14:17;;;;;;;63.47;37.38;;;18.40;99.90;;;;;;5031591;28;20037;-71
2022/09/11 09:16:50;;;;;;;62.55;37.67;;;18.30;99.90;;;;;;5031808;28;20115;-72
2022/09/11 09:19:25;;;;;;;50.70;34.58;;;18.40;99.90;;;;;;5029670;28;20379;-71
2022/09/11 09:21:54;;;;;;;65.05;37.75;;;18.40;99.90;;;;;;5031967;28;20049;-74
2022/09/11 09:24:21;;;;;;;52.70;35.03;;;18.40;99.90;;;;;;5031028;28;20044;-74
2022/09/11 09:26:53;;;;;;;55.92;35.00;;;18.40;99.90;;;;;;5031798;28;20025;-73
2022/09/11 09:29:24;;;;;;;54.47;35.93;;;18.60;99.90;;;;;;5032128;28;20079;-70
2022/09/11 09:31:57;;;;;;;56.88;35.95;;;18.80;99.90;;;;;;5031998;28;20079;-73
2022/09/11 09:34:26;;;;;;;50.20;34.03;;;18.90;99.90;;;;;;5032019;28;20025;-74
2022/09/11 09:37:05;;;;;;;47.78;33.28;;;18.90;99.90;;;;;;5032431;28;20520;-69
2022/09/11 09:39:31;;;;;;;48.88;34.55;;;18.90;99.90;;;;;;5031589;28;20121;-68
2022/09/11 09:42:15;;;;;;;50.67;34.13;;;18.90;99.90;;;;;;5030902;28;20030;-73
2022/09/11 09:44:59;;;;;;;44.88;33.28;;;19.00;99.90;;;;;;5031361;28;20053;-74
2022/09/11 09:47:26;;;;;;;45.35;31.77;;;19.00;99.90;;;;;;5030425;28;20108;-72
2022/09/11 09:49:51;;;;;;;43.65;32.85;;;19.10;99.90;;;;;;5031912;28;20036;-69
2022/09/11 09:52:25;;;;;;;43.53;32.45;;;19.50;99.90;;;;;;5031816;28;20022;-75
2022/09/11 09:54:54;;;;;;;38.85;31.02;;;19.60;99.90;;;;;;5011487;28;20029;-74
2022/09/11 09:57:23;;;;;;;41.35;30.65;;;19.60;99.90;;;;;;5018211;28;20014;-73
2022/09/11 10:00:06;;;;;;;29.75;21.67;;;19.50;99.90;;;;;;5020037;28;20116;-69
2022/09/11 10:02:52;;;;;;;35.65;26.80;;;19.60;99.90;;;;;;5005976;28;20406;-70
2022/09/11 10:05:33;;;;;;;40.10;29.15;;;19.60;99.90;;;;;;5020511;28;20017;-69
2022/09/11 10:08:23;;;;;;;38.78;29.77;;;19.60;99.90;;;;;;5039176;28;20026;-70
2022/09/11 10:10:57;;;;;;;37.65;29.90;;;19.70;99.90;;;;;;5046032;28;20043;-70
2022/09/11 10:13:28;;;;;;;40.95;29.65;;;19.80;99.90;;;;;;5034742;28;20033;-73
2022/09/11 10:16:00;;;;;;;34.60;25.30;;;19.80;99.90;;;;;;5033109;28;20107;-71
2022/09/11 10:18:31;;;;;;;40.58;30.52;;;19.90;99.90;;;;;;5035779;28;20159;-72
2022/09/11 10:21:21;;;;;;;39.75;31.17;;;19.90;99.90;;;;;;5036082;28;20386;-70
2022/09/11 10:23:58;;;;;;;35.00;27.88;;;19.90;99.90;;;;;;5045200;28;20018;-72
2022/09/11 10:26:49;;;;;;;40.63;28.67;;;20.10;99.90;;;;;;5049673;28;20029;-73
2022/09/11 10:29:20;;;;;;;39.88;28.88;;;20.10;99.90;;;;;;5038593;28;20048;-74
2022/09/11 10:32:04;;;;;;;33.92;28.05;;;20.00;99.90;;;;;;5044369;28;20037;-70
2022/09/11 10:34:39;;;;;;;35.92;26.83;;;19.90;99.90;;;;;;5041384;28;20101;-69
2022/09/11 10:37:14;;;;;;;32.58;25.02;;;20.10;99.90;;;;;;5023501;28;20021;-69
2022/09/11 10:39:42;;;;;;;32.65;27.38;;;20.40;99.90;;;;;;5042284;28;20029;-70
2022/09/11 10:42:26;;;;;;;31.42;25.52;;;20.70;99.90;;;;;;5039621;28;20113;-69
2022/09/11 10:44:53;;;;;;;31.02;22.23;;;20.90;99.90;;;;;;5037953;28;20457;-72
2022/09/11 10:47:28;;;;;;;22.20;18.95;;;21.10;99.90;;;;;;5048399;28;20022;-72
2022/09/11 10:50:15;;;;;;;27.17;21.90;;;21.20;99.90;;;;;;5033724;28;20061;-74
2022/09/11 10:52:52;;;;;;;21.65;17.70;;;21.10;99.90;;;;;;5040529;28;20495;-72
2022/09/11 10:55:19;;;;;;;20.70;18.38;;;21.20;99.90;;;;;;5040578;28;20045;-71
2022/09/11 10:57:57;;;;;;;31.13;19.13;;;21.20;99.90;;;;;;5036388;28;20025;-71
2022/09/11 11:00:27;;;;;;;21.95;18.48;;;21.10;99.90;;;;;;5034901;28;20091;-72
2022/09/11 11:03:09;;;;;;;23.90;18.98;;;21.00;99.90;;;;;;5029206;28;20418;-73
2022/09/11 11:05:53;;;;;;;21.70;18.05;;;20.90;99.90;;;;;;5024561;28;20108;-71
2022/09/11 11:08:54;;;;;;;19.73;17.48;;;20.80;99.90;;;;;;5019700;28;20390;-70
2022/09/11 11:11:26;;;;;;;21.20;17.05;;;20.80;99.90;;;;;;5021931;28;20068;-69
2022/09/11 11:14:03;;;;;;;17.73;15.25;;;20.70;99.90;;;;;;5035070;28;20042;-73
2022/09/11 11:16:32;;;;;;;20.90;17.45;;;20.70;99.90;;;;;;5034735;28;20021;-71
2022/09/11 11:19:15;;;;;;;23.02;18.90;;;20.70;99.90;;;;;;5033948;28;20033;-70
2022/09/11 11:22:12;;;;;;;20.88;18.27;;;20.70;99.90;;;;;;5025319;28;20056;-70
2022/09/11 11:25:08;;;;;;;19.55;17.23;;;20.70;99.90;;;;;;5035519;28;20056;-69
2022/09/11 11:28:05;;;;;;;24.17;19.20;;;21.10;99.90;;;;;;5034623;28;20028;-69
2022/09/11 11:30:31;;;;;;;21.52;17.15;;;21.40;99.90;;;;;;5034559;28;20108;-71
2022/09/11 11:33:16;;;;;;;20.95;15.98;;;21.60;99.90;;;;;;5033871;28;20893;-72
2022/09/11 11:36:17;;;;;;;15.82;13.80;;;21.90;99.90;;;;;;5033966;28;20044;-71
2022/09/11 11:39:02;;;;;;;15.10;13.60;;;22.20;99.90;;;;;;5034829;28;21032;-70
2022/09/11 11:41:36;;;;;;;13.90;12.40;;;22.40;99.90;;;;;;5034098;28;20044;-71
2022/09/11 11:44:05;;;;;;;13.40;12.10;;;22.40;99.90;;;;;;5041392;28;20089;-73
2022/09/11 11:46:43;;;;;;;13.13;11.77;;;22.60;99.90;;;;;;5042906;28;20025;-71
2022/09/11 11:49:18;;;;;;;13.30;9.57;;;22.80;99.90;;;;;;5031316;28;20552;-72
2022/09/11 11:51:53;;;;;;;10.90;8.43;;;22.90;99.90;;;;;;5046684;28;20398;-73
2022/09/11 11:54:23;;;;;;;9.45;8.55;;;22.80;99.90;;;;;;5041379;28;20078;-73
2022/09/11 11:57:01;;;;;;;10.18;8.05;;;22.60;99.90;;;;;;5037568;28;20017;-69
2022/09/11 11:59:48;;;;;;;10.30;8.18;;;22.40;99.90;;;;;;5033815;28;20017;-70
2022/09/11 12:02:22;;;;;;;7.25;6.38;;;22.40;99.90;;;;;;5031310;28;20105;-72
2022/09/11 12:05:01;;;;;;;7.35;6.53;;;22.00;99.90;;;;;;5048746;28;20032;-74
2022/09/11 12:07:29;;;;;;;6.95;6.10;;;21.70;99.90;;;;;;5037562;28;20028;-70
2022/09/11 12:09:57;;;;;;;8.68;7.28;;;21.40;99.90;;;;;;5039408;28;20025;-70
2022/09/11 12:12:35;;;;;;;6.07;5.47;;;21.60;99.90;;;;;;5036900;28;20041;-70
2022/09/11 12:15:09;;;;;;;9.15;8.20;;;21.70;99.90;;;;;;5048844;28;20084;-70
2022/09/11 12:17:37;;;;;;;9.57;7.80;;;22.20;99.90;;;;;;5038327;28;20043;-72
2022/09/11 12:20:09;;;;;;;8.98;7.45;;;22.40;99.90;;;;;;5044267;28;20120;-71
2022/09/11 12:22:37;;;;;;;10.07;7.45;;;22.70;99.90;;;;;;5035598;28;20561;-73
2022/09/11 12:25:24;;;;;;;8.40;7.20;;;23.00;99.90;;;;;;5048247;28;20021;-71
2022/09/11 12:27:54;;;;;;;9.63;5.28;;;23.20;99.90;;;;;;5036903;28;20025;-72
2022/09/11 12:30:26;;;;;;;7.80;6.38;;;23.40;99.90;;;;;;5027210;28;20018;-73
2022/09/11 12:33:00;;;;;;;6.40;5.80;;;23.40;99.90;;;;;;5036641;28;20128;-74
2022/09/11 12:35:52;;;;;;;7.30;6.25;;;23.50;99.90;;;;;;5043964;28;20350;-70
2022/09/11 12:38:38;;;;;;;12.47;7.57;;;23.40;99.90;;;;;;5031547;28;20037;-70
2022/09/11 12:41:16;;;;;;;6.72;5.75;;;23.00;99.90;;;;;;5030820;28;20037;-70
2022/09/11 12:43:41;;;;;;;6.47;5.63;;;22.60;99.90;;;;;;5039630;28;20059;-71
2022/09/11 12:46:33;;;;;;;8.73;6.45;;;22.70;99.90;;;;;;5038643;28;20049;-73
2022/09/11 12:49:05;;;;;;;8.65;6.18;;;22.80;99.90;;;;;;5034594;28;20105;-70
2022/09/11 12:51:32;;;;;;;;;;;22.80;99.90;;;;;;5044288;28;20021;-73